sensor_id;sensor_type;location;lat;lon;timestamp;P1;durP1;ratioP1;P2;durP2;ratioP2
6452;SDS011;3259;51.080;13.712;2022-08-03T00:00:54;3.00;;;2.00;;
6452;SDS011;3259;51.080;13.712;2022-08-03T00:03:43;1.58;;;1.48;;
6452;SDS011;3259;51.080;13.712;2022-08-03T00:06:36;1.80;;;1.70;;
6452;SDS011;3259;51.080;13.712;2022-08-03T00:09:25;1.63;;;1.48;;
6452;SDS011;3259;51.080;13.712;2022-08-03T00:12:21;2.25;;;2.03;;
6452;SDS011;3259;51.080;13.712;2022-08-03T00:15:10;4.38;;;1.40;;
6452;SDS011;3259;51.080;13.712;2022-08-03T00:18:02;1.55;;;1.45;;
6452;SDS011;3259;51.080;13.712;2022-08-03T00:20:51;2.00;;;1.90;;
6452;SDS011;3259;51.080;13.712;2022-08-03T00:23:41;1.95;;;1.55;;
6452;SDS011;3259;51.080;13.712;2022-08-03T00:26:38;2.05;;;1.58;;
6452;SDS011;3259;51.080;13.712;2022-08-03T00:29:26;2.35;;;1.70;;
6452;SDS011;3259;51.080;13.712;2022-08-03T00:32:18;2.10;;;1.77;;
6452;SDS011;3259;51.080;13.712;2022-08-03T00:35:10;1.92;;;1.80;;
6452;SDS011;3259;51.080;13.712;2022-08-03T00:38:19;1.25;;;1.25;;
6452;SDS011;3259;51.080;13.712;2022-08-03T00:41:09;1.30;;;1.23;;
6452;SDS011;3259;51.080;13.712;2022-08-03T00:44:01;2.42;;;2.05;;
6452;SDS011;3259;51.080;13.712;2022-08-03T00:46:49;1.83;;;1.73;;
6452;SDS011;3259;51.080;13.712;2022-08-03T00:49:38;2.60;;;2.03;;
6452;SDS011;3259;51.080;13.712;2022-08-03T00:52:27;5.15;;;2.08;;
6452;SDS011;3259;51.080;13.712;2022-08-03T00:55:16;1.98;;;1.88;;
6452;SDS011;3259;51.080;13.712;2022-08-03T00:58:06;1.98;;;1.52;;
6452;SDS011;3259;51.080;13.712;2022-08-03T01:00:56;2.03;;;1.70;;
6452;SDS011;3259;51.080;13.712;2022-08-03T01:03:45;2.40;;;1.65;;
6452;SDS011;3259;51.080;13.712;2022-08-03T01:06:35;2.72;;;1.55;;
6452;SDS011;3259;51.080;13.712;2022-08-03T01:09:30;1.63;;;1.30;;
6452;SDS011;3259;51.080;13.712;2022-08-03T01:12:24;1.70;;;1.60;;
6452;SDS011;3259;51.080;13.712;2022-08-03T01:15:21;1.35;;;1.25;;
6452;SDS011;3259;51.080;13.712;2022-08-03T01:18:13;1.60;;;1.50;;
6452;SDS011;3259;51.080;13.712;2022-08-03T01:21:06;3.67;;;1.83;;
6452;SDS011;3259;51.080;13.712;2022-08-03T01:24:04;1.80;;;1.70;;
6452;SDS011;3259;51.080;13.712;2022-08-03T01:27:02;3.28;;;1.77;;
6452;SDS011;3259;51.080;13.712;2022-08-03T01:29:57;1.50;;;1.50;;
6452;SDS011;3259;51.080;13.712;2022-08-03T01:32:49;1.98;;;1.88;;
6452;SDS011;3259;51.080;13.712;2022-08-03T01:35:49;1.70;;;1.60;;
6452;SDS011;3259;51.080;13.712;2022-08-03T01:38:40;5.97;;;2.00;;
6452;SDS011;3259;51.080;13.712;2022-08-03T01:41:33;5.47;;;1.67;;
6452;SDS011;3259;51.080;13.712;2022-08-03T01:44:24;1.90;;;1.80;;
6452;SDS011;3259;51.080;13.712;2022-08-03T01:47:19;3.15;;;1.95;;
6452;SDS011;3259;51.080;13.712;2022-08-03T01:50:08;2.63;;;1.67;;
6452;SDS011;3259;51.080;13.712;2022-08-03T01:53:00;1.67;;;1.55;;
6452;SDS011;3259;51.080;13.712;2022-08-03T01:55:51;3.40;;;1.48;;
6452;SDS011;3259;51.080;13.712;2022-08-03T01:58:41;2.08;;;1.98;;
6452;SDS011;3259;51.080;13.712;2022-08-03T02:01:31;4.63;;;1.98;;
6452;SDS011;3259;51.080;13.712;2022-08-03T02:04:42;4.00;;;2.00;;
6452;SDS011;3259;51.080;13.712;2022-08-03T02:07:31;2.42;;;1.88;;
6452;SDS011;3259;51.080;13.712;2022-08-03T02:10:21;4.05;;;2.30;;
6452;SDS011;3259;51.080;13.712;2022-08-03T02:13:21;2.13;;;1.77;;
6452;SDS011;3259;51.080;13.712;2022-08-03T02:16:10;1.90;;;1.80;;
6452;SDS011;3259;51.080;13.712;2022-08-03T02:19:01;2.17;;;1.92;;
6452;SDS011;3259;51.080;13.712;2022-08-03T02:21:53;2.28;;;2.08;;
6452;SDS011;3259;51.080;13.712;2022-08-03T02:24:48;2.50;;;2.05;;
6452;SDS011;3259;51.080;13.712;2022-08-03T02:27:37;2.58;;;2.33;;
6452;SDS011;3259;51.080;13.712;2022-08-03T02:30:30;4.32;;;2.30;;
6452;SDS011;3259;51.080;13.712;2022-08-03T02:33:25;4.85;;;2.08;;
6452;SDS011;3259;51.080;13.712;2022-08-03T02:36:15;3.63;;;2.20;;
6452;SDS011;3259;51.080;13.712;2022-08-03T02:39:10;2.60;;;2.03;;
6452;SDS011;3259;51.080;13.712;2022-08-03T02:42:01;2.30;;;2.10;;
6452;SDS011;3259;51.080;13.712;2022-08-03T02:44:52;2.15;;;2.03;;
6452;SDS011;3259;51.080;13.712;2022-08-03T02:47:42;2.67;;;2.25;;
6452;SDS011;3259;51.080;13.712;2022-08-03T02:50:40;3.30;;;2.75;;
6452;SDS011;3259;51.080;13.712;2022-08-03T02:53:30;5.82;;;2.58;;
6452;SDS011;3259;51.080;13.712;2022-08-03T02:56:20;4.50;;;1.92;;
6452;SDS011;3259;51.080;13.712;2022-08-03T02:59:09;5.47;;;2.28;;
6452;SDS011;3259;51.080;13.712;2022-08-03T03:01:59;5.43;;;2.25;;
6452;SDS011;3259;51.080;13.712;2022-08-03T03:04:50;3.03;;;2.80;;
6452;SDS011;3259;51.080;13.712;2022-08-03T03:08:00;4.10;;;2.72;;
6452;SDS011;3259;51.080;13.712;2022-08-03T03:11:03;3.88;;;2.53;;
6452;SDS011;3259;51.080;13.712;2022-08-03T03:13:53;3.42;;;2.65;;
6452;SDS011;3259;51.080;13.712;2022-08-03T03:16:43;3.42;;;2.53;;
6452;SDS011;3259;51.080;13.712;2022-08-03T03:19:37;3.67;;;2.42;;
6452;SDS011;3259;51.080;13.712;2022-08-03T03:22:27;3.10;;;2.50;;
6452;SDS011;3259;51.080;13.712;2022-08-03T03:25:16;4.32;;;3.20;;
6452;SDS011;3259;51.080;13.712;2022-08-03T03:28:05;2.85;;;2.17;;
6452;SDS011;3259;51.080;13.712;2022-08-03T03:30:55;4.05;;;2.22;;
6452;SDS011;3259;51.080;13.712;2022-08-03T03:33:44;2.63;;;2.42;;
6452;SDS011;3259;51.080;13.712;2022-08-03T03:36:33;2.70;;;2.10;;
6452;SDS011;3259;51.080;13.712;2022-08-03T03:39:22;4.00;;;2.75;;
6452;SDS011;3259;51.080;13.712;2022-08-03T03:42:11;4.10;;;2.78;;
6452;SDS011;3259;51.080;13.712;2022-08-03T03:45:02;5.38;;;2.72;;
6452;SDS011;3259;51.080;13.712;2022-08-03T03:47:52;3.80;;;3.03;;
6452;SDS011;3259;51.080;13.712;2022-08-03T03:50:42;3.13;;;2.80;;
6452;SDS011;3259;51.080;13.712;2022-08-03T03:53:31;2.75;;;2.25;;
6452;SDS011;3259;51.080;13.712;2022-08-03T03:56:19;2.58;;;2.35;;
6452;SDS011;3259;51.080;13.712;2022-08-03T03:59:08;3.30;;;2.70;;
6452;SDS011;3259;51.080;13.712;2022-08-03T04:01:56;5.80;;;3.28;;
6452;SDS011;3259;51.080;13.712;2022-08-03T04:04:49;3.63;;;3.33;;
6452;SDS011;3259;51.080;13.712;2022-08-03T04:07:57;4.05;;;3.42;;
6452;SDS011;3259;51.080;13.712;2022-08-03T04:11:06;4.55;;;3.15;;
6452;SDS011;3259;51.080;13.712;2022-08-03T04:13:59;4.72;;;3.03;;
6452;SDS011;3259;51.080;13.712;2022-08-03T04:16:52;3.40;;;3.13;;
6452;SDS011;3259;51.080;13.712;2022-08-03T04:19:43;13.07;;;2.90;;
6452;SDS011;3259;51.080;13.712;2022-08-03T04:22:35;3.17;;;2.38;;
6452;SDS011;3259;51.080;13.712;2022-08-03T04:25:25;9.93;;;3.05;;
6452;SDS011;3259;51.080;13.712;2022-08-03T04:28:17;4.18;;;3.17;;
6452;SDS011;3259;51.080;13.712;2022-08-03T04:31:17;3.45;;;3.15;;
6452;SDS011;3259;51.080;13.712;2022-08-03T04:34:08;4.30;;;2.70;;
6452;SDS011;3259;51.080;13.712;2022-08-03T04:36:58;7.50;;;3.60;;
6452;SDS011;3259;51.080;13.712;2022-08-03T04:39:49;6.70;;;2.80;;
6452;SDS011;3259;51.080;13.712;2022-08-03T04:42:43;5.38;;;3.58;;
6452;SDS011;3259;51.080;13.712;2022-08-03T04:45:32;7.18;;;3.67;;
6452;SDS011;3259;51.080;13.712;2022-08-03T04:48:21;4.15;;;3.75;;
6452;SDS011;3259;51.080;13.712;2022-08-03T04:51:10;5.25;;;3.65;;
6452;SDS011;3259;51.080;13.712;2022-08-03T04:54:02;7.95;;;3.53;;
6452;SDS011;3259;51.080;13.712;2022-08-03T04:56:54;10.05;;;3.80;;
6452;SDS011;3259;51.080;13.712;2022-08-03T04:59:42;12.10;;;3.95;;
6452;SDS011;3259;51.080;13.712;2022-08-03T05:02:31;6.75;;;3.20;;
6452;SDS011;3259;51.080;13.712;2022-08-03T05:05:23;7.13;;;3.22;;
6452;SDS011;3259;51.080;13.712;2022-08-03T05:08:31;9.10;;;3.92;;
6452;SDS011;3259;51.080;13.712;2022-08-03T05:11:20;4.60;;;2.90;;
6452;SDS011;3259;51.080;13.712;2022-08-03T05:14:10;9.57;;;3.22;;
6452;SDS011;3259;51.080;13.712;2022-08-03T05:16:58;4.85;;;3.10;;
6452;SDS011;3259;51.080;13.712;2022-08-03T05:19:47;6.55;;;2.70;;
6452;SDS011;3259;51.080;13.712;2022-08-03T05:22:36;4.53;;;3.13;;
6452;SDS011;3259;51.080;13.712;2022-08-03T05:25:24;4.35;;;3.85;;
6452;SDS011;3259;51.080;13.712;2022-08-03T05:28:13;3.42;;;2.88;;
6452;SDS011;3259;51.080;13.712;2022-08-03T05:31:03;2.80;;;2.60;;
6452;SDS011;3259;51.080;13.712;2022-08-03T05:33:54;3.80;;;2.40;;
6452;SDS011;3259;51.080;13.712;2022-08-03T05:36:44;2.53;;;2.33;;
6452;SDS011;3259;51.080;13.712;2022-08-03T05:39:32;6.20;;;2.75;;
6452;SDS011;3259;51.080;13.712;2022-08-03T05:42:21;4.13;;;2.72;;
6452;SDS011;3259;51.080;13.712;2022-08-03T05:45:14;4.45;;;2.13;;
6452;SDS011;3259;51.080;13.712;2022-08-03T05:48:07;7.95;;;2.38;;
6452;SDS011;3259;51.080;13.712;2022-08-03T05:50:56;3.17;;;2.05;;
6452;SDS011;3259;51.080;13.712;2022-08-03T05:53:44;3.60;;;2.38;;
6452;SDS011;3259;51.080;13.712;2022-08-03T05:56:33;2.25;;;1.63;;
6452;SDS011;3259;51.080;13.712;2022-08-03T05:59:21;2.10;;;1.90;;
6452;SDS011;3259;51.080;13.712;2022-08-03T06:02:24;8.95;;;2.50;;
6452;SDS011;3259;51.080;13.712;2022-08-03T06:05:14;5.25;;;2.25;;
6452;SDS011;3259;51.080;13.712;2022-08-03T06:08:03;2.15;;;1.98;;
6452;SDS011;3259;51.080;13.712;2022-08-03T06:10:52;2.55;;;1.92;;
6452;SDS011;3259;51.080;13.712;2022-08-03T06:13:40;2.35;;;2.08;;
6452;SDS011;3259;51.080;13.712;2022-08-03T06:16:29;1.67;;;1.45;;
6452;SDS011;3259;51.080;13.712;2022-08-03T06:19:19;2.00;;;1.90;;
6452;SDS011;3259;51.080;13.712;2022-08-03T06:22:10;2.22;;;2.00;;
6452;SDS011;3259;51.080;13.712;2022-08-03T06:25:00;1.73;;;1.63;;
6452;SDS011;3259;51.080;13.712;2022-08-03T06:27:50;1.35;;;1.35;;
6452;SDS011;3259;51.080;13.712;2022-08-03T06:30:39;1.48;;;1.45;;
6452;SDS011;3259;51.080;13.712;2022-08-03T06:33:28;1.60;;;1.50;;
6452;SDS011;3259;51.080;13.712;2022-08-03T06:36:37;1.73;;;1.50;;
6452;SDS011;3259;51.080;13.712;2022-08-03T06:39:26;2.72;;;1.50;;
6452;SDS011;3259;51.080;13.712;2022-08-03T06:42:15;1.40;;;1.27;;
6452;SDS011;3259;51.080;13.712;2022-08-03T06:45:06;1.38;;;1.27;;
6452;SDS011;3259;51.080;13.712;2022-08-03T06:47:59;2.00;;;1.45;;
6452;SDS011;3259;51.080;13.712;2022-08-03T06:50:48;1.48;;;1.20;;
6452;SDS011;3259;51.080;13.712;2022-08-03T06:53:36;2.13;;;1.40;;
6452;SDS011;3259;51.080;13.712;2022-08-03T06:56:26;2.42;;;1.38;;
6452;SDS011;3259;51.080;13.712;2022-08-03T06:59:15;5.53;;;1.92;;
6452;SDS011;3259;51.080;13.712;2022-08-03T07:02:23;4.80;;;2.15;;
6452;SDS011;3259;51.080;13.712;2022-08-03T07:05:14;1.83;;;1.55;;
6452;SDS011;3259;51.080;13.712;2022-08-03T07:08:03;2.22;;;1.23;;
6452;SDS011;3259;51.080;13.712;2022-08-03T07:10:51;2.22;;;1.45;;
6452;SDS011;3259;51.080;13.712;2022-08-03T07:13:41;3.25;;;1.48;;
6452;SDS011;3259;51.080;13.712;2022-08-03T07:16:30;6.32;;;2.03;;
6452;SDS011;3259;51.080;13.712;2022-08-03T07:19:18;1.45;;;1.30;;
6452;SDS011;3259;51.080;13.712;2022-08-03T07:22:07;3.20;;;1.35;;
6452;SDS011;3259;51.080;13.712;2022-08-03T07:24:56;4.22;;;1.40;;
6452;SDS011;3259;51.080;13.712;2022-08-03T07:27:45;5.75;;;1.85;;
6452;SDS011;3259;51.080;13.712;2022-08-03T07:30:39;4.63;;;1.67;;
6452;SDS011;3259;51.080;13.712;2022-08-03T07:33:27;2.17;;;1.48;;
6452;SDS011;3259;51.080;13.712;2022-08-03T07:36:16;2.38;;;1.70;;
6452;SDS011;3259;51.080;13.712;2022-08-03T07:39:04;3.22;;;1.42;;
6452;SDS011;3259;51.080;13.712;2022-08-03T07:42:03;2.70;;;1.42;;
6452;SDS011;3259;51.080;13.712;2022-08-03T07:44:52;2.85;;;1.92;;
6452;SDS011;3259;51.080;13.712;2022-08-03T07:47:44;1.20;;;1.10;;
6452;SDS011;3259;51.080;13.712;2022-08-03T07:50:39;4.32;;;1.33;;
6452;SDS011;3259;51.080;13.712;2022-08-03T07:53:27;1.55;;;1.17;;
6452;SDS011;3259;51.080;13.712;2022-08-03T07:56:20;1.77;;;1.63;;
6452;SDS011;3259;51.080;13.712;2022-08-03T07:59:08;1.67;;;1.50;;
6452;SDS011;3259;51.080;13.712;2022-08-03T08:01:57;1.90;;;1.25;;
6452;SDS011;3259;51.080;13.712;2022-08-03T08:04:47;0.98;;;0.90;;
6452;SDS011;3259;51.080;13.712;2022-08-03T08:07:35;2.42;;;1.30;;
6452;SDS011;3259;51.080;13.712;2022-08-03T08:10:24;3.15;;;1.67;;
6452;SDS011;3259;51.080;13.712;2022-08-03T08:13:13;2.85;;;1.23;;
6452;SDS011;3259;51.080;13.712;2022-08-03T08:16:02;2.47;;;1.63;;
6452;SDS011;3259;51.080;13.712;2022-08-03T08:18:51;1.70;;;1.23;;
6452;SDS011;3259;51.080;13.712;2022-08-03T08:21:41;2.33;;;1.02;;
6452;SDS011;3259;51.080;13.712;2022-08-03T08:24:48;2.28;;;1.00;;
6452;SDS011;3259;51.080;13.712;2022-08-03T08:27:41;1.35;;;1.10;;
6452;SDS011;3259;51.080;13.712;2022-08-03T08:30:51;3.78;;;1.42;;
6452;SDS011;3259;51.080;13.712;2022-08-03T08:33:39;1.75;;;1.00;;
6452;SDS011;3259;51.080;13.712;2022-08-03T08:36:49;1.27;;;0.98;;
6452;SDS011;3259;51.080;13.712;2022-08-03T08:39:38;0.98;;;0.98;;
6452;SDS011;3259;51.080;13.712;2022-08-03T08:42:26;1.33;;;0.80;;
6452;SDS011;3259;51.080;13.712;2022-08-03T08:45:15;1.02;;;0.90;;
6452;SDS011;3259;51.080;13.712;2022-08-03T08:48:05;1.25;;;1.05;;
6452;SDS011;3259;51.080;13.712;2022-08-03T08:50:55;0.93;;;0.93;;
6452;SDS011;3259;51.080;13.712;2022-08-03T08:53:46;2.22;;;1.00;;
6452;SDS011;3259;51.080;13.712;2022-08-03T08:56:36;1.05;;;0.88;;
6452;SDS011;3259;51.080;13.712;2022-08-03T08:59:26;0.93;;;0.93;;
6452;SDS011;3259;51.080;13.712;2022-08-03T09:02:34;1.92;;;1.13;;
6452;SDS011;3259;51.080;13.712;2022-08-03T09:05:23;1.45;;;0.90;;
6452;SDS011;3259;51.080;13.712;2022-08-03T09:08:32;0.70;;;0.70;;
6452;SDS011;3259;51.080;13.712;2022-08-03T09:11:22;1.20;;;0.75;;
6452;SDS011;3259;51.080;13.712;2022-08-03T09:14:31;1.20;;;1.05;;
6452;SDS011;3259;51.080;13.712;2022-08-03T09:17:25;0.73;;;0.63;;
6452;SDS011;3259;51.080;13.712;2022-08-03T09:20:27;0.75;;;0.70;;
6452;SDS011;3259;51.080;13.712;2022-08-03T09:23:17;0.80;;;0.80;;
6452;SDS011;3259;51.080;13.712;2022-08-03T09:26:28;0.85;;;0.85;;
6452;SDS011;3259;51.080;13.712;2022-08-03T09:29:18;1.35;;;0.75;;
6452;SDS011;3259;51.080;13.712;2022-08-03T09:32:08;0.88;;;0.57;;
6452;SDS011;3259;51.080;13.712;2022-08-03T09:35:02;0.85;;;0.60;;
6452;SDS011;3259;51.080;13.712;2022-08-03T09:38:13;2.83;;;0.63;;
6452;SDS011;3259;51.080;13.712;2022-08-03T09:41:02;1.13;;;0.90;;
6452;SDS011;3259;51.080;13.712;2022-08-03T09:44:06;0.80;;;0.80;;
6452;SDS011;3259;51.080;13.712;2022-08-03T09:47:12;1.75;;;0.80;;
6452;SDS011;3259;51.080;13.712;2022-08-03T09:50:03;1.27;;;1.00;;
6452;SDS011;3259;51.080;13.712;2022-08-03T09:52:52;0.93;;;0.65;;
6452;SDS011;3259;51.080;13.712;2022-08-03T09:55:48;2.80;;;0.50;;
6452;SDS011;3259;51.080;13.712;2022-08-03T09:58:57;3.13;;;0.85;;
6452;SDS011;3259;51.080;13.712;2022-08-03T10:01:47;0.85;;;0.77;;
6452;SDS011;3259;51.080;13.712;2022-08-03T10:04:45;1.15;;;0.63;;
6452;SDS011;3259;51.080;13.712;2022-08-03T10:07:43;0.90;;;0.82;;
6452;SDS011;3259;51.080;13.712;2022-08-03T10:10:33;0.57;;;0.47;;
6452;SDS011;3259;51.080;13.712;2022-08-03T10:13:29;2.33;;;0.77;;
6452;SDS011;3259;51.080;13.712;2022-08-03T10:16:17;1.10;;;0.60;;
6452;SDS011;3259;51.080;13.712;2022-08-03T10:19:12;3.63;;;0.77;;
6452;SDS011;3259;51.080;13.712;2022-08-03T10:22:02;3.97;;;0.77;;
6452;SDS011;3259;51.080;13.712;2022-08-03T10:24:55;0.73;;;0.63;;
6452;SDS011;3259;51.080;13.712;2022-08-03T10:27:45;0.70;;;0.50;;
6452;SDS011;3259;51.080;13.712;2022-08-03T10:30:35;0.60;;;0.60;;
6452;SDS011;3259;51.080;13.712;2022-08-03T10:33:27;0.55;;;0.55;;
6452;SDS011;3259;51.080;13.712;2022-08-03T10:36:37;0.50;;;0.50;;
6452;SDS011;3259;51.080;13.712;2022-08-03T10:39:28;1.33;;;0.90;;
6452;SDS011;3259;51.080;13.712;2022-08-03T10:42:18;0.65;;;0.50;;
6452;SDS011;3259;51.080;13.712;2022-08-03T10:45:13;0.40;;;0.40;;
6452;SDS011;3259;51.080;13.712;2022-08-03T10:48:06;1.00;;;0.60;;
6452;SDS011;3259;51.080;13.712;2022-08-03T10:50:57;0.70;;;0.70;;
6452;SDS011;3259;51.080;13.712;2022-08-03T10:53:47;0.50;;;0.45;;
6452;SDS011;3259;51.080;13.712;2022-08-03T10:56:40;0.30;;;0.30;;
6452;SDS011;3259;51.080;13.712;2022-08-03T10:59:59;0.47;;;0.45;;
6452;SDS011;3259;51.080;13.712;2022-08-03T11:03:01;1.08;;;0.63;;
6452;SDS011;3259;51.080;13.712;2022-08-03T11:06:13;0.32;;;0.32;;
6452;SDS011;3259;51.080;13.712;2022-08-03T11:09:15;0.30;;;0.30;;
6452;SDS011;3259;51.080;13.712;2022-08-03T11:12:17;0.32;;;0.32;;
6452;SDS011;3259;51.080;13.712;2022-08-03T11:15:17;0.32;;;0.32;;
6452;SDS011;3259;51.080;13.712;2022-08-03T11:18:19;1.20;;;0.30;;
6452;SDS011;3259;51.080;13.712;2022-08-03T11:21:12;0.63;;;0.28;;
6452;SDS011;3259;51.080;13.712;2022-08-03T11:24:01;0.88;;;0.52;;
6452;SDS011;3259;51.080;13.712;2022-08-03T11:27:01;0.20;;;0.20;;
6452;SDS011;3259;51.080;13.712;2022-08-03T11:30:05;0.30;;;0.30;;
6452;SDS011;3259;51.080;13.712;2022-08-03T11:32:57;0.40;;;0.40;;
6452;SDS011;3259;51.080;13.712;2022-08-03T11:35:56;0.30;;;0.30;;
6452;SDS011;3259;51.080;13.712;2022-08-03T11:45:26;0.60;;;0.60;;
6452;SDS011;3259;51.080;13.712;2022-08-03T11:48:15;0.40;;;0.40;;
6452;SDS011;3259;51.080;13.712;2022-08-03T11:51:04;0.30;;;0.30;;
6452;SDS011;3259;51.080;13.712;2022-08-03T11:53:55;0.60;;;0.38;;
6452;SDS011;3259;51.080;13.712;2022-08-03T11:56:45;0.30;;;0.30;;
6452;SDS011;3259;51.080;13.712;2022-08-03T11:59:35;0.57;;;0.30;;
6452;SDS011;3259;51.080;13.712;2022-08-03T12:02:26;2.33;;;0.25;;
6452;SDS011;3259;51.080;13.712;2022-08-03T12:05:14;0.30;;;0.30;;
6452;SDS011;3259;51.080;13.712;2022-08-03T12:08:04;0.32;;;0.20;;
6452;SDS011;3259;51.080;13.712;2022-08-03T12:10:53;0.22;;;0.22;;
6452;SDS011;3259;51.080;13.712;2022-08-03T12:13:44;0.38;;;0.38;;
6452;SDS011;3259;51.080;13.712;2022-08-03T12:16:53;0.95;;;0.70;;
6452;SDS011;3259;51.080;13.712;2022-08-03T12:19:43;0.70;;;0.30;;
6452;SDS011;3259;51.080;13.712;2022-08-03T12:22:32;0.63;;;0.30;;
6452;SDS011;3259;51.080;13.712;2022-08-03T12:25:23;0.20;;;0.20;;
6452;SDS011;3259;51.080;13.712;2022-08-03T12:28:25;1.63;;;0.20;;
6452;SDS011;3259;51.080;13.712;2022-08-03T12:31:23;0.22;;;0.22;;
6452;SDS011;3259;51.080;13.712;2022-08-03T12:34:12;0.35;;;0.20;;
6452;SDS011;3259;51.080;13.712;2022-08-03T12:37:03;0.20;;;0.20;;
6452;SDS011;3259;51.080;13.712;2022-08-03T12:40:08;0.75;;;0.30;;
6452;SDS011;3259;51.080;13.712;2022-08-03T12:43:13;0.57;;;0.20;;
6452;SDS011;3259;51.080;13.712;2022-08-03T12:46:08;0.25;;;0.20;;
6452;SDS011;3259;51.080;13.712;2022-08-03T12:48:59;0.10;;;0.10;;
6452;SDS011;3259;51.080;13.712;2022-08-03T12:51:56;0.35;;;0.15;;
6452;SDS011;3259;51.080;13.712;2022-08-03T12:54:56;0.15;;;0.15;;
6452;SDS011;3259;51.080;13.712;2022-08-03T12:57:46;0.10;;;0.10;;
6452;SDS011;3259;51.080;13.712;2022-08-03T13:00:35;0.20;;;0.20;;
6452;SDS011;3259;51.080;13.712;2022-08-03T13:03:27;0.43;;;0.30;;
6452;SDS011;3259;51.080;13.712;2022-08-03T13:06:28;0.20;;;0.20;;
6452;SDS011;3259;51.080;13.712;2022-08-03T13:09:16;1.65;;;0.20;;
6452;SDS011;3259;51.080;13.712;2022-08-03T13:12:07;0.20;;;0.20;;
6452;SDS011;3259;51.080;13.712;2022-08-03T13:14:58;0.20;;;0.17;;
6452;SDS011;3259;51.080;13.712;2022-08-03T13:17:47;0.10;;;0.10;;
6452;SDS011;3259;51.080;13.712;2022-08-03T13:20:36;0.90;;;0.20;;
6452;SDS011;3259;51.080;13.712;2022-08-03T13:23:24;0.20;;;0.20;;
6452;SDS011;3259;51.080;13.712;2022-08-03T13:26:13;0.20;;;0.20;;
6452;SDS011;3259;51.080;13.712;2022-08-03T13:29:03;0.28;;;0.28;;
6452;SDS011;3259;51.080;13.712;2022-08-03T13:31:53;0.20;;;0.20;;
6452;SDS011;3259;51.080;13.712;2022-08-03T13:34:41;0.10;;;0.10;;
6452;SDS011;3259;51.080;13.712;2022-08-03T13:37:30;0.20;;;0.20;;
6452;SDS011;3259;51.080;13.712;2022-08-03T13:40:19;0.30;;;0.20;;
6452;SDS011;3259;51.080;13.712;2022-08-03T13:43:15;1.00;;;0.10;;
6452;SDS011;3259;51.080;13.712;2022-08-03T13:46:05;0.98;;;0.10;;
6452;SDS011;3259;51.080;13.712;2022-08-03T13:48:54;0.13;;;0.13;;
6452;SDS011;3259;51.080;13.712;2022-08-03T13:51:42;0.22;;;0.22;;
6452;SDS011;3259;51.080;13.712;2022-08-03T13:54:31;1.48;;;0.10;;
6452;SDS011;3259;51.080;13.712;2022-08-03T13:57:19;1.67;;;0.40;;
6452;SDS011;3259;51.080;13.712;2022-08-03T14:00:28;4.38;;;0.30;;
6452;SDS011;3259;51.080;13.712;2022-08-03T14:03:18;4.90;;;0.30;;
6452;SDS011;3259;51.080;13.712;2022-08-03T14:06:09;0.50;;;0.30;;
6452;SDS011;3259;51.080;13.712;2022-08-03T14:08:58;0.15;;;0.15;;
6452;SDS011;3259;51.080;13.712;2022-08-03T14:11:47;0.10;;;0.10;;
6452;SDS011;3259;51.080;13.712;2022-08-03T14:14:54;0.57;;;0.10;;
6452;SDS011;3259;51.080;13.712;2022-08-03T14:17:47;2.35;;;0.25;;
6452;SDS011;3259;51.080;13.712;2022-08-03T14:20:37;0.73;;;0.28;;
6452;SDS011;3259;51.080;13.712;2022-08-03T14:23:39;0.45;;;0.20;;
6452;SDS011;3259;51.080;13.712;2022-08-03T14:26:30;22.23;;;1.60;;
6452;SDS011;3259;51.080;13.712;2022-08-03T14:29:18;63.33;;;3.72;;
6452;SDS011;3259;51.080;13.712;2022-08-03T14:32:07;40.90;;;2.03;;
6452;SDS011;3259;51.080;13.712;2022-08-03T14:34:59;72.97;;;4.53;;
6452;SDS011;3259;51.080;13.712;2022-08-03T14:37:48;27.85;;;1.55;;
6452;SDS011;3259;51.080;13.712;2022-08-03T14:40:37;93.03;;;5.28;;
6452;SDS011;3259;51.080;13.712;2022-08-03T14:43:26;22.58;;;2.38;;
6452;SDS011;3259;51.080;13.712;2022-08-03T14:46:19;23.90;;;1.83;;
6452;SDS011;3259;51.080;13.712;2022-08-03T14:49:08;70.70;;;5.00;;
6452;SDS011;3259;51.080;13.712;2022-08-03T14:52:16;16.27;;;2.00;;
6452;SDS011;3259;51.080;13.712;2022-08-03T14:55:07;15.57;;;1.38;;
6452;SDS011;3259;51.080;13.712;2022-08-03T14:57:56;22.33;;;2.22;;
6452;SDS011;3259;51.080;13.712;2022-08-03T15:00:45;15.18;;;1.40;;
6452;SDS011;3259;51.080;13.712;2022-08-03T15:03:34;9.60;;;1.30;;
6452;SDS011;3259;51.080;13.712;2022-08-03T15:06:22;13.60;;;1.48;;
6452;SDS011;3259;51.080;13.712;2022-08-03T15:09:12;4.95;;;1.23;;
6452;SDS011;3259;51.080;13.712;2022-08-03T15:12:11;14.35;;;1.00;;
6452;SDS011;3259;51.080;13.712;2022-08-03T15:14:59;5.03;;;0.65;;
6452;SDS011;3259;51.080;13.712;2022-08-03T15:17:48;12.73;;;1.38;;
6452;SDS011;3259;51.080;13.712;2022-08-03T15:20:46;8.40;;;0.93;;
6452;SDS011;3259;51.080;13.712;2022-08-03T15:23:36;7.72;;;1.27;;
6452;SDS011;3259;51.080;13.712;2022-08-03T15:26:24;4.88;;;0.88;;
6452;SDS011;3259;51.080;13.712;2022-08-03T15:29:23;5.53;;;0.80;;
6452;SDS011;3259;51.080;13.712;2022-08-03T15:32:33;3.17;;;0.60;;
6452;SDS011;3259;51.080;13.712;2022-08-03T15:35:21;7.38;;;0.90;;
6452;SDS011;3259;51.080;13.712;2022-08-03T15:38:10;15.00;;;0.98;;
6452;SDS011;3259;51.080;13.712;2022-08-03T15:40:58;3.08;;;0.55;;
6452;SDS011;3259;51.080;13.712;2022-08-03T15:43:47;1.98;;;0.45;;
6452;SDS011;3259;51.080;13.712;2022-08-03T15:46:39;4.90;;;0.63;;
6452;SDS011;3259;51.080;13.712;2022-08-03T15:49:28;2.78;;;0.40;;
6452;SDS011;3259;51.080;13.712;2022-08-03T15:52:16;11.60;;;0.60;;
6452;SDS011;3259;51.080;13.712;2022-08-03T15:55:07;4.35;;;0.50;;
6452;SDS011;3259;51.080;13.712;2022-08-03T15:58:02;4.10;;;0.47;;
6452;SDS011;3259;51.080;13.712;2022-08-03T16:01:11;1.45;;;0.38;;
6452;SDS011;3259;51.080;13.712;2022-08-03T16:04:06;3.47;;;0.57;;
6452;SDS011;3259;51.080;13.712;2022-08-03T16:06:55;0.75;;;0.28;;
6452;SDS011;3259;51.080;13.712;2022-08-03T16:09:43;10.93;;;0.75;;
6452;SDS011;3259;51.080;13.712;2022-08-03T16:12:32;3.38;;;0.60;;
6452;SDS011;3259;51.080;13.712;2022-08-03T16:15:20;1.38;;;0.43;;
6452;SDS011;3259;51.080;13.712;2022-08-03T16:18:09;0.45;;;0.22;;
6452;SDS011;3259;51.080;13.712;2022-08-03T16:20:59;5.00;;;0.68;;
6452;SDS011;3259;51.080;13.712;2022-08-03T16:23:47;1.05;;;0.30;;
6452;SDS011;3259;51.080;13.712;2022-08-03T16:26:36;1.95;;;0.30;;
6452;SDS011;3259;51.080;13.712;2022-08-03T16:29:25;0.70;;;0.30;;
6452;SDS011;3259;51.080;13.712;2022-08-03T16:32:13;8.60;;;0.50;;
6452;SDS011;3259;51.080;13.712;2022-08-03T16:35:02;3.70;;;0.40;;
6452;SDS011;3259;51.080;13.712;2022-08-03T16:37:53;3.55;;;0.77;;
6452;SDS011;3259;51.080;13.712;2022-08-03T16:40:42;2.40;;;0.20;;
6452;SDS011;3259;51.080;13.712;2022-08-03T16:43:31;6.40;;;0.45;;
6452;SDS011;3259;51.080;13.712;2022-08-03T16:46:21;2.22;;;0.40;;
6452;SDS011;3259;51.080;13.712;2022-08-03T16:49:10;0.68;;;0.32;;
6452;SDS011;3259;51.080;13.712;2022-08-03T16:52:19;1.05;;;0.68;;
6452;SDS011;3259;51.080;13.712;2022-08-03T16:55:09;3.83;;;0.63;;
6452;SDS011;3259;51.080;13.712;2022-08-03T16:58:03;1.58;;;0.50;;
6452;SDS011;3259;51.080;13.712;2022-08-03T17:00:53;2.78;;;0.40;;
6452;SDS011;3259;51.080;13.712;2022-08-03T17:03:44;3.90;;;0.60;;
6452;SDS011;3259;51.080;13.712;2022-08-03T17:06:48;4.50;;;0.30;;
6452;SDS011;3259;51.080;13.712;2022-08-03T17:09:37;1.25;;;0.40;;
6452;SDS011;3259;51.080;13.712;2022-08-03T17:12:26;4.03;;;0.43;;
6452;SDS011;3259;51.080;13.712;2022-08-03T17:15:16;7.47;;;0.75;;
6452;SDS011;3259;51.080;13.712;2022-08-03T17:18:24;1.20;;;0.70;;
6452;SDS011;3259;51.080;13.712;2022-08-03T17:21:15;0.52;;;0.30;;
6452;SDS011;3259;51.080;13.712;2022-08-03T17:24:07;7.80;;;0.40;;
6452;SDS011;3259;51.080;13.712;2022-08-03T17:26:59;5.03;;;0.43;;
6452;SDS011;3259;51.080;13.712;2022-08-03T17:29:58;2.55;;;0.45;;
6452;SDS011;3259;51.080;13.712;2022-08-03T17:32:48;4.40;;;0.40;;
6452;SDS011;3259;51.080;13.712;2022-08-03T17:35:45;1.92;;;0.30;;
6452;SDS011;3259;51.080;13.712;2022-08-03T17:38:42;5.07;;;0.25;;
6452;SDS011;3259;51.080;13.712;2022-08-03T17:41:32;8.45;;;0.40;;